Time;durP1;ratioP1;P1;durP2;ratioP2;P2;SDS_P1;SDS_P2;PMS_P1;PMS_P2;Temp;Humidity;BMP_temperature;BMP_pressure;BME280_temperature;BME280_humidity;BME280_pressure;Samples;Min_cycle;Max_cycle;Signal;HPM_P1;HPM_P2
2023/07/13 00:01:16;;;;;;;4.03;1.75;;;;;;;14.64;75.15;101304.19;4991382;28;20042;-68
2023/07/13 00:03:42;;;;;;;6.45;2.15;;;;;;;14.62;75.59;101302.56;4991376;28;20074;-69
2023/07/13 00:06:08;;;;;;;6.70;2.20;;;;;;;14.54;77.63;101305.91;4990551;28;20478;-68
2023/07/13 00:08:34;;;;;;;6.25;1.95;;;;;;;14.47;77.21;101319.22;5005790;28;20097;-69
2023/07/13 00:11:02;;;;;;;7.75;2.20;;;;;;;14.42;76.66;101320.59;4990245;28;20513;-68
2023/07/13 00:13:28;;;;;;;5.50;2.03;;;;;;;14.39;76.84;101318.97;5005889;28;20513;-69
2023/07/13 00:15:54;;;;;;;6.75;2.25;;;;;;;14.42;76.38;101313.25;4991557;28;20458;-69
2023/07/13 00:18:20;;;;;;;4.90;1.88;;;;;;;14.41;75.87;101307.88;4991644;28;20049;-69
2023/07/13 00:20:46;;;;;;;4.60;2.35;;;;;;;14.41;77.16;101302.41;4990603;28;20505;-69
2023/07/13 00:23:11;;;;;;;5.32;2.10;;;;;;;14.38;76.77;101313.63;4990532;28;20026;-69
2023/07/13 00:25:37;;;;;;;5.65;2.00;;;;;;;14.37;76.74;101306.41;4990474;28;20085;-69
2023/07/13 00:28:03;;;;;;;5.13;1.80;;;;;;;14.31;77.88;101307.75;4990862;28;20157;-69
2023/07/13 00:30:30;;;;;;;5.53;1.77;;;;;;;14.25;77.48;101303.66;4990729;28;20065;-69
2023/07/13 00:32:57;;;;;;;4.78;1.90;;;;;;;14.27;77.28;101300.81;5007694;28;20179;-69
2023/07/13 00:35:23;;;;;;;5.30;1.90;;;;;;;14.26;77.29;101310.00;5009861;28;20034;-68
2023/07/13 00:37:49;;;;;;;6.32;2.05;;;;;;;14.24;78.46;101312.00;5008311;28;20042;-69
2023/07/13 00:40:15;;;;;;;5.28;2.00;;;;;;;14.23;77.51;101315.75;5007745;28;20049;-69
2023/07/13 00:42:41;;;;;;;5.25;2.40;;;;;;;14.22;78.07;101319.44;4990519;28;20049;-68
2023/07/13 00:45:13;;;;;;;8.02;2.20;;;;;;;14.14;78.33;101320.09;5005412;28;20041;-68
2023/07/13 00:47:40;;;;;;;5.40;2.20;;;;;;;14.14;78.33;101309.13;4990423;28;20034;-69
2023/07/13 00:50:10;;;;;;;7.20;1.88;;;;;;;14.15;78.40;101315.47;5010022;28;20092;-69
2023/07/13 00:52:40;;;;;;;6.85;2.05;;;;;;;14.12;78.93;101312.97;5009694;28;20399;-69
2023/07/13 00:55:08;;;;;;;7.70;2.30;;;;;;;14.09;79.48;101326.91;5002983;28;20041;-68
2023/07/13 00:57:34;;;;;;;5.65;2.33;;;;;;;14.03;80.08;101318.22;5005613;28;20080;-69
2023/07/13 01:00:08;;;;;;;8.90;2.65;;;;;;;13.97;80.44;101313.19;5005227;28;20058;-69
2023/07/13 01:02:37;;;;;;;6.97;2.22;;;;;;;14.00;79.21;101323.91;4988758;28;20042;-69
2023/07/13 01:05:13;;;;;;;7.80;2.50;;;;;;;13.99;79.32;101319.44;4990295;28;20049;-69
2023/07/13 01:07:40;;;;;;;4.70;2.15;;;;;;;14.01;80.11;101314.72;5003766;28;20026;-69
2023/07/13 01:10:07;;;;;;;10.70;2.53;;;;;;;14.01;79.90;101320.19;5004314;28;20517;-69
2023/07/13 01:12:32;;;;;;;7.72;2.25;;;;;;;13.98;80.15;101317.66;5005413;28;20129;-69
2023/07/13 01:15:00;;;;;;;9.90;2.38;;;;;;;13.96;80.82;101310.59;5004793;28;20478;-69
2023/07/13 01:17:26;;;;;;;8.18;1.90;;;;;;;13.94;80.74;101320.78;5004546;28;20447;-69
2023/07/13 01:19:51;;;;;;;8.40;2.30;;;;;;;13.90;81.21;101320.16;5004992;28;20030;-69
2023/07/13 01:22:18;;;;;;;5.47;2.20;;;;;;;13.91;80.85;101318.31;5004013;28;20042;-68
2023/07/13 01:24:46;;;;;;;11.77;1.90;;;;;;;13.91;81.07;101321.91;4989802;28;20049;-69
2023/07/13 01:27:14;;;;;;;7.80;1.70;;;;;;;13.91;81.16;101321.03;4989809;28;20045;-69
2023/07/13 01:29:41;;;;;;;6.95;2.15;;;;;;;13.94;81.73;101329.88;4989889;28;20073;-69
2023/07/13 01:32:26;;;;;;;7.60;2.25;;;;;;;13.94;81.72;101328.97;4989890;28;20109;-68
2023/07/13 01:34:54;;;;;;;9.73;2.20;;;;;;;13.93;81.53;101325.38;5005064;28;20070;-69
2023/07/13 01:37:20;;;;;;;7.47;2.10;;;;;;;13.92;81.67;101329.09;4988853;28;20061;-69
2023/07/13 01:39:46;;;;;;;7.30;2.30;;;;;;;13.89;81.65;101334.81;4988521;28;20181;-69
2023/07/13 01:42:13;;;;;;;7.53;2.25;;;;;;;13.87;81.16;101327.72;4989129;28;20042;-69
2023/07/13 01:44:38;;;;;;;7.70;2.47;;;;;;;13.86;81.72;101332.34;4989256;28;20494;-69
2023/07/13 01:47:04;;;;;;;5.97;2.03;;;;;;;13.87;82.32;101333.22;4989245;28;20026;-69
2023/07/13 01:49:29;;;;;;;6.55;2.13;;;;;;;13.85;82.57;101333.34;4989073;28;20466;-69
2023/07/13 01:51:55;;;;;;;9.18;2.72;;;;;;;13.84;82.45;101333.44;4988602;28;20046;-69
2023/07/13 01:54:20;;;;;;;6.40;2.08;;;;;;;13.81;81.84;101333.69;4990030;28;20042;-69
2023/07/13 01:56:46;;;;;;;7.60;2.42;;;;;;;13.79;83.10;101336.53;5003931;28;20046;-69
2023/07/13 01:59:11;;;;;;;7.75;2.03;;;;;;;13.75;82.57;101337.75;5003911;28;20034;-69
2023/07/13 02:01:37;;;;;;;5.35;2.15;;;;;;;13.78;82.31;101343.00;4988905;28;20038;-69
2023/07/13 02:04:03;;;;;;;5.78;2.67;;;;;;;13.76;83.10;101343.13;5003977;28;20034;-69
2023/07/13 02:06:32;;;;;;;5.78;2.42;;;;;;;13.74;82.98;101339.63;4988744;28;20034;-69
2023/07/13 02:08:58;;;;;;;9.70;2.53;;;;;;;13.73;82.43;101334.28;4986859;28;20022;-69
2023/07/13 02:11:24;;;;;;;7.30;1.98;;;;;;;13.69;83.81;101347.31;4987156;28;20027;-69
2023/07/13 02:13:50;;;;;;;6.10;2.17;;;;;;;13.62;83.93;101343.31;4987600;28;20034;-68
2023/07/13 02:16:16;;;;;;;9.65;3.13;;;;;;;13.61;83.58;101340.69;4987333;28;20038;-69
2023/07/13 02:18:41;;;;;;;11.13;2.30;;;;;;;13.60;84.70;101342.56;4986319;28;20030;-69
2023/07/13 02:21:07;;;;;;;5.70;2.20;;;;;;;13.59;83.30;101345.41;4988908;28;20060;-69
2023/07/13 02:23:33;;;;;;;10.25;2.55;;;;;;;13.59;84.08;101345.41;4988248;28;20056;-69
2023/07/13 02:26:02;;;;;;;11.95;2.40;;;;;;;13.60;83.98;101341.69;4987897;28;20045;-69
2023/07/13 02:28:28;;;;;;;4.30;2.25;;;;;;;13.56;83.89;101349.25;4988812;28;20077;-69
2023/07/13 02:30:54;;;;;;;6.32;2.95;;;;;;;13.56;84.73;101337.44;5004148;28;20525;-69
2023/07/13 02:33:19;;;;;;;6.05;2.45;;;;;;;13.52;85.52;101336.81;5003662;28;20042;-69
2023/07/13 02:35:45;;;;;;;8.63;2.60;;;;;;;13.49;85.19;101343.41;4988520;28;20038;-69
2023/07/13 02:38:10;;;;;;;10.65;2.30;;;;;;;13.49;85.74;101339.78;4987758;28;20398;-69
2023/07/13 02:40:42;;;;;;;5.75;2.17;;;;;;;13.47;86.03;101341.75;5118592;27;20883;-70
2023/07/13 02:43:08;;;;;;;7.28;2.65;;;;;;;13.45;85.85;101341.00;5062878;28;20028;-69
2023/07/13 02:45:33;;;;;;;4.13;1.95;;;;;;;13.46;86.22;101343.63;5062700;28;20048;-69
2023/07/13 02:47:59;;;;;;;10.40;2.60;;;;;;;13.44;86.34;101342.00;5062391;28;20052;-69
2023/07/13 02:50:24;;;;;;;6.88;3.15;;;;;;;13.47;86.00;101344.50;5065456;28;20029;-69
2023/07/13 02:52:49;;;;;;;5.25;2.47;;;;;;;13.46;86.22;101345.47;5082228;28;20032;-69
2023/07/13 02:55:15;;;;;;;8.93;2.78;;;;;;;13.46;85.06;101340.00;5065093;28;20024;-69
2023/07/13 02:57:41;;;;;;;7.03;2.50;;;;;;;13.42;85.19;101347.56;5095512;28;20111;-69
2023/07/13 03:00:07;;;;;;;5.97;2.28;;;;;;;13.39;86.47;101344.22;5103002;28;20097;-69
2023/07/13 03:02:34;;;;;;;6.53;2.60;;;;;;;13.34;86.89;101344.56;5102886;28;20039;-69
2023/07/13 03:05:00;;;;;;;8.73;2.70;;;;;;;13.33;86.02;101337.34;5083845;28;20539;-70
2023/07/13 03:07:26;;;;;;;6.78;2.40;;;;;;;13.33;86.24;101348.28;5064737;28;20211;-69
2023/07/13 03:09:58;;;;;;;9.15;2.78;;;;;;;13.31;86.04;101347.53;5083770;28;20134;-69
2023/07/13 03:12:32;;;;;;;8.75;2.40;;;;;;;13.28;86.79;101354.09;5087849;28;20044;-69
2023/07/13 03:14:58;;;;;;;7.32;2.95;;;;;;;13.25;87.25;101350.75;5094307;28;20028;-69
2023/07/13 03:17:24;;;;;;;7.47;2.67;;;;;;;13.24;88.05;101351.69;5065710;28;20036;-69
2023/07/13 03:19:50;;;;;;;5.25;2.30;;;;;;;13.25;87.64;101345.28;5081931;28;20389;-69
2023/07/13 03:22:18;;;;;;;8.48;2.58;;;;;;;13.21;88.41;101352.78;5081204;28;20040;-69
2023/07/13 03:24:44;;;;;;;7.53;2.72;;;;;;;13.19;88.52;101349.28;5077823;28;20120;-69
2023/07/13 03:27:09;;;;;;;9.93;2.83;;;;;;;13.19;89.57;101357.47;5082959;28;20538;-69
2023/07/13 03:29:38;;;;;;;9.45;3.05;;;;;;;13.20;88.61;101350.19;5100112;28;20066;-69
2023/07/13 03:32:05;;;;;;;9.27;2.40;;;;;;;13.21;87.78;101352.78;5102416;28;20139;-70
2023/07/13 03:34:31;;;;;;;10.35;3.22;;;;;;;13.20;88.14;101361.13;5103512;28;20024;-69
2023/07/13 03:36:57;;;;;;;10.45;2.92;;;;;;;13.18;89.32;101365.81;5087176;28;20395;-69
2023/07/13 03:39:23;;;;;;;5.88;2.65;;;;;;;13.18;89.02;101369.41;5081775;28;20046;-69
2023/07/13 03:41:53;;;;;;;9.55;2.88;;;;;;;13.18;88.16;101366.66;5085458;28;20059;-69
2023/07/13 03:44:19;;;;;;;8.73;3.13;;;;;;;13.18;89.78;101363.94;5064823;28;20040;-69
2023/07/13 03:46:48;;;;;;;11.38;2.95;;;;;;;13.18;89.65;101361.22;5083042;28;20119;-69
2023/07/13 03:49:14;;;;;;;6.75;3.08;;;;;;;13.19;89.00;101362.94;5086335;28;20021;-69
2023/07/13 03:51:39;;;;;;;11.43;2.80;;;;;;;13.21;88.60;101371.03;5053153;28;20037;-70
2023/07/13 03:54:05;;;;;;;8.00;3.15;;;;;;;13.19;90.25;101371.13;5067000;28;20040;-69
2023/07/13 03:56:32;;;;;;;10.23;3.33;;;;;;;13.21;90.21;101376.50;5070889;28;20061;-70
2023/07/13 03:58:58;;;;;;;5.53;2.85;;;;;;;13.23;89.12;101382.75;5069237;28;20130;-69
2023/07/13 04:01:24;;;;;;;12.88;3.03;;;;;;;13.22;90.79;101390.06;5089193;28;20032;-69
2023/07/13 04:03:51;;;;;;;12.25;2.95;;;;;;;13.23;90.65;101383.63;5087157;28;20039;-69
2023/07/13 04:06:23;;;;;;;9.10;2.80;;;;;;;13.24;90.60;101385.38;5089104;28;20051;-69
2023/07/13 04:08:50;;;;;;;;;;;;;;;13.31;87.92;101406.78;5087978;28;20032;-69
2023/07/13 04:11:18;;;;;;;10.73;2.88;;;;;;;13.33;90.55;101392.00;5075771;28;19973;-69
2023/07/13 04:13:44;;;;;;;6.97;2.83;;;;;;;13.38;90.08;101395.28;5087752;28;20039;-69
2023/07/13 04:16:09;;;;;;;13.13;3.53;;;;;;;13.42;90.27;101402.25;5089048;28;20040;-69
2023/07/13 04:18:35;;;;;;;19.52;3.33;;;;;;;13.48;91.15;101403.66;5085543;28;20047;-69
2023/07/13 04:21:00;;;;;;;11.20;4.72;;;;;;;13.51;90.30;101396.06;5088925;28;20036;-70
2023/07/13 04:23:26;;;;;;;13.48;2.83;;;;;;;13.60;90.08;101401.84;5088952;28;20105;-69
2023/07/13 04:25:53;;;;;;;9.20;3.55;;;;;;;13.69;90.53;101404.75;5083257;28;20086;-69
2023/07/13 04:28:20;;;;;;;7.22;3.38;;;;;;;13.74;90.66;101401.66;5074246;28;20032;-69
2023/07/13 04:30:46;;;;;;;8.52;3.40;;;;;;;13.80;90.53;101401.16;5088889;28;20069;-69
2023/07/13 04:33:11;;;;;;;11.98;4.03;;;;;;;13.89;90.05;101402.31;5088843;28;20115;-69
2023/07/13 04:35:37;;;;;;;11.27;3.70;;;;;;;13.94;90.93;101401.00;5088817;28;20475;-69
2023/07/13 04:38:03;;;;;;;12.57;4.63;;;;;;;13.98;92.17;101394.28;5076649;28;20447;-69
2023/07/13 04:40:29;;;;;;;10.15;4.68;;;;;;;14.06;91.34;101409.22;5067799;28;20103;-69
2023/07/13 04:42:55;;;;;;;13.02;3.97;;;;;;;14.11;89.10;101410.59;5078922;28;20040;-69
2023/07/13 04:45:23;;;;;;;18.35;5.38;;;;;;;14.20;91.35;101411.75;5068898;28;20039;-69
2023/07/13 04:47:49;;;;;;;13.80;4.47;;;;;;;14.27;90.91;101413.03;5066940;28;20293;-69
2023/07/13 04:50:20;;;;;;;13.02;4.70;;;;;;;14.37;91.43;101424.13;5068242;28;20189;-70
2023/07/13 04:52:47;;;;;;;15.52;4.85;;;;;;;14.45;90.73;101422.50;5067819;28;20076;-69
2023/07/13 04:55:12;;;;;;;22.13;5.85;;;;;;;14.50;91.50;101413.94;5080807;28;20495;-69
2023/07/13 04:57:37;;;;;;;17.58;5.88;;;;;;;14.57;90.64;101423.44;5082634;28;20039;-70
2023/07/13 05:00:05;;;;;;;19.60;6.07;;;;;;;14.66;90.87;101422.69;5068137;28;20103;-69
2023/07/13 05:02:31;;;;;;;14.35;6.80;;;;;;;14.73;90.95;101421.19;5067267;28;20499;-69
2023/07/13 05:04:57;;;;;;;22.27;6.88;;;;;;;14.79;90.12;101419.84;5079427;28;20520;-69
2023/07/13 05:07:22;;;;;;;15.00;6.47;;;;;;;14.85;89.99;101427.56;5088564;28;20055;-69
2023/07/13 05:09:48;;;;;;;21.20;8.00;;;;;;;14.93;90.51;101436.03;5087814;28;20032;-70
2023/07/13 05:12:13;;;;;;;18.75;7.47;;;;;;;15.02;90.17;101429.78;5073906;28;20139;-69
2023/07/13 05:14:38;;;;;;;24.25;8.32;;;;;;;15.08;91.05;101424.81;5078793;28;20111;-69
2023/07/13 05:17:04;;;;;;;29.70;9.32;;;;;;;15.12;90.79;101429.91;5066377;28;20374;-69
2023/07/13 05:19:30;;;;;;;18.00;7.47;;;;;;;15.20;90.81;101432.91;5074374;28;20024;-70
2023/07/13 05:21:55;;;;;;;26.05;9.80;;;;;;;15.28;90.63;101437.72;5085694;28;20040;-70
2023/07/13 05:24:21;;;;;;;21.55;9.80;;;;;;;15.36;89.48;101435.22;5088321;28;20028;-69
2023/07/13 05:26:46;;;;;;;22.50;9.25;;;;;;;15.44;89.50;101443.69;5083914;28;20036;-69
2023/07/13 05:29:12;;;;;;;25.48;9.77;;;;;;;15.50;89.75;101442.31;5085101;28;20043;-69
2023/07/13 05:31:37;;;;;;;19.45;8.43;;;;;;;15.60;88.75;101448.75;5088021;28;20040;-69
2023/07/13 05:34:03;;;;;;;32.25;9.90;;;;;;;15.67;88.90;101452.78;5077349;28;20028;-69
2023/07/13 05:36:28;;;;;;;25.45;9.23;;;;;;;15.73;88.82;101451.38;5067165;28;20111;-69
2023/07/13 05:38:54;;;;;;;24.65;9.63;;;;;;;15.78;89.56;101447.22;5067460;28;20079;-69
2023/07/13 05:41:19;;;;;;;25.52;9.63;;;;;;;15.82;88.70;101454.22;5068302;28;20635;-70
2023/07/13 05:43:45;;;;;;;23.90;9.20;;;;;;;15.88;88.71;101450.06;5076269;28;20040;-70
2023/07/13 05:46:10;;;;;;;24.50;9.57;;;;;;;15.95;89.04;101458.66;5067554;28;20036;-69
2023/07/13 05:48:36;;;;;;;22.20;9.57;;;;;;;16.03;88.72;101456.97;5070698;28;20019;-69
2023/07/13 05:51:02;;;;;;;21.60;10.27;;;;;;;16.12;88.51;101452.56;5087158;28;20040;-69
2023/07/13 05:53:27;;;;;;;26.50;10.50;;;;;;;16.17;87.76;101452.19;5087525;28;20357;-69
2023/07/13 05:55:54;;;;;;;23.70;10.13;;;;;;;16.24;89.24;101458.91;5087364;28;20118;-69
2023/07/13 05:58:20;;;;;;;27.92;9.98;;;;;;;16.31;88.30;101457.34;5073685;28;20092;-69
2023/07/13 06:00:47;;;;;;;24.85;10.07;;;;;;;16.33;87.12;101464.47;5052220;28;20040;-69
2023/07/13 06:03:12;;;;;;;26.95;10.23;;;;;;;16.36;88.30;101462.44;5067375;28;20063;-69
2023/07/13 06:05:38;;;;;;;25.23;10.73;;;;;;;16.40;88.36;101472.16;5080511;28;20446;-69
2023/07/13 06:08:05;;;;;;;21.80;10.18;;;;;;;16.50;87.73;101476.69;5085327;28;20446;-69
2023/07/13 06:10:35;;;;;;;23.83;10.55;;;;;;;16.63;87.75;101486.63;5087219;28;20506;-69
2023/07/13 06:13:01;;;;;;;30.20;10.15;;;;;;;16.68;86.08;101476.09;5072126;28;20035;-70
2023/07/13 06:15:26;;;;;;;22.27;10.80;;;;;;;16.73;85.77;101479.34;5066609;28;20036;-70
2023/07/13 06:17:52;;;;;;;25.33;10.52;;;;;;;16.76;84.74;101473.59;5067446;28;20159;-69
2023/07/13 06:20:17;;;;;;;27.10;11.25;;;;;;;16.83;86.63;101481.16;5076734;28;20043;-69
2023/07/13 06:22:43;;;;;;;26.10;11.05;;;;;;;16.94;86.39;101480.19;5086601;28;20062;-69
2023/07/13 06:25:08;;;;;;;27.58;11.32;;;;;;;17.04;86.12;101491.25;5068142;28;20032;-69
2023/07/13 06:27:34;;;;;;;25.70;10.57;;;;;;;17.15;86.16;101487.50;5076504;28;20057;-69
2023/07/13 06:29:59;;;;;;;24.35;10.88;;;;;;;17.19;84.72;101483.47;5066501;28;20073;-69
2023/07/13 06:32:25;;;;;;;24.48;10.77;;;;;;;17.18;83.88;101493.63;5066739;28;20127;-70
2023/07/13 06:34:51;;;;;;;26.77;11.10;;;;;;;17.20;84.33;101493.47;5078122;28;20036;-69
2023/07/13 06:37:17;;;;;;;24.75;11.90;;;;;;;17.15;83.70;101504.00;5085940;28;20051;-69
2023/07/13 06:39:43;;;;;;;23.88;10.02;;;;;;;17.13;84.05;101493.16;5084409;28;20044;-69
2023/07/13 06:42:09;;;;;;;26.98;10.13;;;;;;;17.11;83.61;101494.28;5083380;28;20104;-69
2023/07/13 06:44:34;;;;;;;28.08;11.07;;;;;;;17.11;83.03;101502.53;5068767;28;20075;-69
2023/07/13 06:46:59;;;;;;;25.33;10.82;;;;;;;17.11;84.48;101503.41;5066582;28;20049;-72
2023/07/13 06:49:25;;;;;;;25.00;9.90;;;;;;;17.11;84.99;101499.78;5071131;28;20032;-69
2023/07/13 06:51:51;;;;;;;35.17;11.73;;;;;;;17.21;84.18;101501.59;5086430;28;20036;-69
2023/07/13 06:54:16;;;;;;;23.98;10.52;;;;;;;17.36;85.25;101502.09;5086519;28;20035;-69
2023/07/13 06:56:42;;;;;;;24.20;10.85;;;;;;;17.47;82.94;101510.22;5079930;28;20726;-69
2023/07/13 06:59:07;;;;;;;25.27;10.85;;;;;;;17.58;83.16;101506.50;5078371;28;20051;-69
2023/07/13 07:01:33;;;;;;;24.30;10.40;;;;;;;17.70;82.85;101510.88;5086910;28;20031;-69
2023/07/13 07:03:58;;;;;;;26.60;10.38;;;;;;;17.73;82.00;101513.38;5085401;28;20028;-69
2023/07/13 07:06:24;;;;;;;26.85;9.18;;;;;;;17.73;81.37;101509.72;5068243;28;20174;-69
2023/07/13 07:08:50;;;;;;;24.25;10.65;;;;;;;17.65;81.71;101521.44;5064808;28;20039;-69
2023/07/13 07:11:22;;;;;;;24.67;9.95;;;;;;;17.59;83.11;101514.63;5073659;28;20436;-70
2023/07/13 07:13:48;;;;;;;22.98;9.23;;;;;;;17.66;82.03;101512.16;5075688;28;20560;-69
2023/07/13 07:16:14;;;;;;;26.10;10.13;;;;;;;17.78;82.09;101513.84;5085151;28;20682;-69
2023/07/13 07:18:40;;;;;;;22.50;9.15;;;;;;;17.83;80.82;101514.28;5086438;28;20115;-69
2023/07/13 07:21:05;;;;;;;21.88;10.43;;;;;;;17.85;80.07;101508.63;5080905;28;20098;-69
2023/07/13 07:23:31;;;;;;;26.75;10.07;;;;;;;17.79;80.89;101506.44;5065787;28;20044;-69
2023/07/13 07:25:56;;;;;;;19.08;8.68;;;;;;;17.86;80.69;101518.63;5066510;28;20374;-69
2023/07/13 07:28:22;;;;;;;21.17;10.38;;;;;;;17.99;80.41;101516.47;5074754;28;20046;-69
2023/07/13 07:30:48;;;;;;;22.35;9.88;;;;;;;18.01;79.96;101525.47;5090267;28;20464;-70
2023/07/13 07:33:14;;;;;;;24.20;9.40;;;;;;;18.09;80.19;101531.13;5090213;28;20059;-69
2023/07/13 07:35:39;;;;;;;20.70;8.80;;;;;;;18.30;79.21;101533.75;5089861;28;20032;-69
2023/07/13 07:38:05;;;;;;;20.55;8.88;;;;;;;18.48;78.07;101531.13;5080402;28;20067;-68
2023/07/13 07:40:31;;;;;;;20.73;8.77;;;;;;;18.64;78.60;101536.03;5068835;28;20086;-69
2023/07/13 07:42:57;;;;;;;18.25;8.85;;;;;;;18.69;77.90;101532.88;5071546;28;20102;-69
2023/07/13 07:45:23;;;;;;;24.20;8.68;;;;;;;18.78;77.78;101527.34;5090398;28;20036;-69
2023/07/13 07:47:49;;;;;;;21.65;8.65;;;;;;;18.83;77.33;101524.16;5086301;28;20380;-69
2023/07/13 07:50:15;;;;;;;19.60;7.95;;;;;;;18.88;77.13;101521.81;5049195;28;20825;-69
2023/07/13 07:52:40;;;;;;;22.60;7.93;;;;;;;18.88;76.87;101524.56;5088532;28;20621;-69
2023/07/13 07:55:07;;;;;;;22.73;9.32;;;;;;;19.00;76.41;101522.53;5089021;28;20122;-69
2023/07/13 07:57:33;;;;;;;25.02;8.20;;;;;;;19.15;76.15;101536.72;5087241;28;20071;-69
2023/07/13 07:59:58;;;;;;;23.40;8.68;;;;;;;19.18;73.86;101525.38;5087231;28;20085;-69
2023/07/13 08:02:24;;;;;;;18.08;7.53;;;;;;;19.26;74.94;101528.25;5090183;28;20044;-69
2023/07/13 08:04:50;;;;;;;17.83;7.88;;;;;;;19.30;73.82;101530.53;5080177;28;20382;-69
2023/07/13 08:07:15;;;;;;;18.17;7.32;;;;;;;19.26;73.59;101531.03;5068762;28;20404;-69
2023/07/13 08:09:41;;;;;;;13.55;6.88;;;;;;;19.41;72.39;101529.50;5068449;28;20214;-69
2023/07/13 08:12:07;;;;;;;15.80;6.82;;;;;;;19.59;74.22;101532.31;5075937;28;20380;-69
2023/07/13 08:14:32;;;;;;;16.58;7.55;;;;;;;19.85;72.49;101538.88;5072015;28;20063;-69
2023/07/13 08:16:58;;;;;;;17.17;7.40;;;;;;;20.32;71.76;101538.69;5068834;28;20036;-69
2023/07/13 08:19:23;;;;;;;14.35;6.63;;;;;;;20.59;69.85;101543.28;5078756;28;20024;-69
2023/07/13 08:21:49;;;;;;;12.30;6.10;;;;;;;21.00;67.59;101540.84;5088334;28;20040;-69
2023/07/13 08:24:15;;;;;;;12.70;5.80;;;;;;;21.10;66.23;101536.09;5083396;28;20395;-69
2023/07/13 08:26:40;;;;;;;13.23;6.32;;;;;;;21.24;66.09;101530.97;5071802;28;20412;-69
2023/07/13 08:29:05;;;;;;;9.68;5.65;;;;;;;21.29;65.17;101540.53;5075309;28;20119;-68
2023/07/13 08:31:31;;;;;;;13.65;5.88;;;;;;;21.32;65.72;101529.16;5068995;28;20033;-69
2023/07/13 08:33:56;;;;;;;17.15;6.60;;;;;;;21.38;64.89;101530.41;5068179;28;20025;-70
2023/07/13 08:36:22;;;;;;;15.55;5.97;;;;;;;21.71;64.84;101527.78;5068739;28;20409;-69
2023/07/13 08:38:47;;;;;;;11.18;6.47;;;;;;;22.33;63.52;101523.63;5068038;28;20135;-69
2023/07/13 08:41:17;;;;;;;14.95;6.00;;;;;;;22.78;62.02;101536.13;5067362;28;20055;-68
2023/07/13 08:43:48;;;;;;;11.68;6.43;;;;;;;22.77;61.11;101533.53;5064970;28;20491;-69
2023/07/13 08:46:19;;;;;;;11.95;6.40;;;;;;;22.61;60.74;101531.63;5088877;28;20047;-69
2023/07/13 08:48:52;;;;;;;14.63;6.63;;;;;;;22.68;60.64;101529.91;5078896;28;20904;-69
2023/07/13 08:51:34;;;;;;;10.00;6.50;;;;;;;22.72;62.27;101525.75;5068046;28;20413;-68
2023/07/13 08:54:01;;;;;;;;;;;;;;;22.75;61.85;101530.91;5068320;28;20068;-69
2023/07/13 08:56:29;;;;;;;12.52;5.82;;;;;;;22.58;60.62;101524.53;5067355;28;20407;-69
2023/07/13 08:58:58;;;;;;;8.93;5.80;;;;;;;22.52;60.74;101519.69;5068124;28;20028;-70
2023/07/13 09:01:31;;;;;;;14.13;6.70;;;;;;;22.29;60.51;101532.44;5069123;28;20044;-69
2023/07/13 09:04:21;;;;;;;14.55;7.43;;;;;;;22.56;61.32;101525.72;5066111;28;20124;-69
2023/07/13 09:07:04;;;;;;;14.57;7.18;;;;;;;22.31;59.92;101522.94;5067502;28;20094;-69
2023/07/13 09:09:50;;;;;;;11.30;6.72;;;;;;;22.08;60.29;101519.91;5066225;28;20036;-68
2023/07/13 09:12:35;;;;;;;11.45;6.90;;;;;;;21.78;59.31;101526.94;5074322;28;20127;-68
2023/07/13 09:15:04;;;;;;;13.38;7.35;;;;;;;21.91;60.94;101521.78;5087739;28;20522;-70
2023/07/13 09:17:45;;;;;;;14.68;8.90;;;;;;;22.39;60.46;101525.72;5088226;28;20035;-69
2023/07/13 09:20:23;;;;;;;13.25;7.25;;;;;;;23.01;59.47;101521.56;5086818;28;20184;-69
2023/07/13 09:22:49;;;;;;;12.50;7.00;;;;;;;23.39;56.70;101522.69;5087789;28;20054;-69
2023/07/13 09:25:26;;;;;;;16.05;7.32;;;;;;;23.69;57.41;101518.28;5087396;28;20119;-69
2023/07/13 09:27:55;;;;;;;8.48;6.43;;;;;;;23.88;57.56;101526.16;5083467;28;20036;-69
2023/07/13 09:30:33;;;;;;;9.48;6.32;;;;;;;24.17;54.83;101517.13;5068366;28;20033;-69
2023/07/13 09:32:58;;;;;;;13.23;6.50;;;;;;;23.83;53.16;101530.56;5067702;28;20044;-69
2023/07/13 09:35:29;;;;;;;11.50;5.97;;;;;;;23.57;54.37;101526.09;5078707;28;20036;-69
2023/07/13 09:38:02;;;;;;;10.93;5.70;;;;;;;23.75;54.48;101519.47;5088115;28;20085;-70
2023/07/13 09:40:40;;;;;;;9.65;5.50;;;;;;;24.24;55.38;101522.81;5074993;28;20445;-69
2023/07/13 09:43:10;;;;;;;11.52;5.97;;;;;;;24.20;53.33;101521.44;5076786;28;20028;-69
2023/07/13 09:45:36;;;;;;;15.13;5.82;;;;;;;23.86;51.71;101522.69;5067558;28;20079;-69
2023/07/13 09:48:16;;;;;;;11.98;5.07;;;;;;;24.11;55.70;101520.66;5063252;28;20119;-68
2023/07/13 09:50:42;;;;;;;9.50;5.38;;;;;;;24.35;53.86;101527.09;5062892;28;20040;-69
2023/07/13 09:53:16;;;;;;;9.45;5.53;;;;;;;24.45;51.91;101521.31;5066736;28;20035;-68
2023/07/13 09:55:43;;;;;;;13.18;5.72;;;;;;;24.44;52.55;101528.81;5067980;28;20583;-70
2023/07/13 09:58:14;;;;;;;11.07;5.82;;;;;;;24.40;51.84;101519.97;5073167;28;20063;-69
2023/07/13 10:00:40;;;;;;;14.23;5.75;;;;;;;24.68;55.08;101525.81;5082985;28;20455;-68
2023/07/13 10:03:23;;;;;;;12.88;4.78;;;;;;;25.15;53.65;101527.47;5067252;28;20818;-69
2023/07/13 10:05:51;;;;;;;10.48;5.00;;;;;;;24.83;51.10;101527.78;5066701;28;20044;-68
2023/07/13 10:08:30;;;;;;;9.13;4.47;;;;;;;24.56;52.83;101529.22;5066442;28;20136;-69
2023/07/13 10:11:18;;;;;;;8.90;4.25;;;;;;;24.43;52.11;101525.16;5066248;28;20065;-69
2023/07/13 10:13:50;;;;;;;8.27;4.50;;;;;;;24.28;51.94;101529.72;5075146;28;20036;-68
2023/07/13 10:16:16;;;;;;;9.32;4.68;;;;;;;24.22;51.31;101530.47;5087101;28;20082;-69
2023/07/13 10:18:49;;;;;;;7.88;4.03;;;;;;;24.09;51.96;101533.00;5087005;28;20497;-69
2023/07/13 10:21:18;;;;;;;9.68;3.90;;;;;;;24.20;53.07;101521.44;5086753;28;20050;-69
2023/07/13 10:23:50;;;;;;;7.80;3.95;;;;;;;24.54;50.58;101526.63;5075402;28;20072;-70
2023/07/13 10:26:22;;;;;;;9.15;4.00;;;;;;;24.57;52.07;101529.03;5065518;28;20487;-70
2023/07/13 10:28:55;;;;;;;12.27;5.07;;;;;;;24.52;52.27;101539.84;5065489;28;20046;-69
2023/07/13 10:31:21;;;;;;;9.52;3.88;;;;;;;24.29;50.29;101537.03;5087602;28;20032;-69
2023/07/13 10:33:47;;;;;;;7.10;3.95;;;;;;;24.03;50.90;101531.81;5085704;28;20065;-69
2023/07/13 10:36:15;;;;;;;10.35;3.95;;;;;;;23.95;52.68;101537.41;5066141;28;20044;-70
2023/07/13 10:38:41;;;;;;;8.07;3.55;;;;;;;23.63;52.65;101546.72;5065703;28;20056;-69
2023/07/13 10:41:11;;;;;;;8.65;4.70;;;;;;;23.37;54.88;101539.53;5085187;28;20044;-69
2023/07/13 10:43:43;;;;;;;7.53;4.63;;;;;;;23.12;57.61;101560.91;5073423;28;20522;-69
2023/07/13 10:46:12;;;;;;;10.80;4.72;;;;;;;22.79;59.47;101561.97;5086915;28;20062;-69
2023/07/13 10:48:42;;;;;;;11.07;5.10;;;;;;;22.37;61.08;101568.53;5077506;28;20561;-68
2023/07/13 10:51:10;;;;;;;8.75;5.43;;;;;;;21.96;62.83;101562.81;5066384;28;20040;-69
2023/07/13 10:53:39;;;;;;;6.90;5.00;;;;;;;21.73;64.57;101565.38;5068868;28;20050;-69
2023/07/13 10:56:14;;;;;;;8.73;5.55;;;;;;;22.03;66.70;101563.91;5085668;28;20052;-69
2023/07/13 10:58:41;;;;;;;9.45;5.38;;;;;;;22.34;67.71;101564.19;5075160;28;20124;-69
2023/07/13 11:01:09;;;;;;;9.30;5.57;;;;;;;22.73;66.63;101571.00;5068350;28;20075;-69
2023/07/13 11:03:46;;;;;;;12.95;5.93;;;;;;;22.98;68.10;101569.09;5080085;28;20125;-69
2023/07/13 11:06:41;;;;;;;15.27;5.88;;;;;;;23.29;67.04;101569.25;5076902;28;20036;-68
2023/07/13 11:09:21;;;;;;;13.32;5.95;;;;;;;23.69;65.85;101568.28;5069904;28;20093;-68
2023/07/13 11:11:47;;;;;;;8.32;5.45;;;;;;;24.13;66.68;101576.06;5076834;28;20044;-68
2023/07/13 11:14:30;;;;;;;9.80;6.18;;;;;;;24.51;63.79;101565.09;5070537;28;20032;-68
2023/07/13 11:16:56;;;;;;;11.38;5.63;;;;;;;24.70;61.83;101561.78;5070127;28;20522;-69
2023/07/13 11:19:21;;;;;;;9.75;5.78;;;;;;;24.56;62.07;101557.91;5070692;28;20107;-69
2023/07/13 11:22:05;;;;;;;8.13;5.72;;;;;;;24.49;59.89;101558.84;5069507;28;20132;-69